Time;durP1;ratioP1;P1;durP2;ratioP2;P2;SDS_P1;SDS_P2;PMS_P1;PMS_P2;Temp;Humidity;BMP_temperature;BMP_pressure;BME280_temperature;BME280_humidity;BME280_pressure;Samples;Min_cycle;Max_cycle;Signal;HPM_P1;HPM_P2
2023/10/10 00:00:27;;;;;;;16.38;5.38;;;19.30;99.90;;;;;;5028640;28;20037;-53
2023/10/10 00:02:56;;;;;;;8.95;5.30;;;19.30;99.90;;;;;;5028172;28;20071;-53
2023/10/10 00:05:33;;;;;;;9.00;5.45;;;19.30;99.90;;;;;;5011597;28;20099;-53
2023/10/10 00:08:00;;;;;;;11.63;5.15;;;19.10;99.90;;;;;;5028301;28;20131;-54
2023/10/10 00:10:27;;;;;;;13.48;6.15;;;18.90;99.90;;;;;;5028493;28;20030;-54
2023/10/10 00:12:54;;;;;;;6.88;5.30;;;19.10;99.90;;;;;;5028039;28;20049;-54
2023/10/10 00:15:27;;;;;;;12.23;5.30;;;19.10;99.90;;;;;;5028219;28;20552;-52
2023/10/10 00:17:59;;;;;;;11.85;6.18;;;19.20;99.90;;;;;;5027597;28;20449;-53
2023/10/10 00:20:29;;;;;;;9.90;5.60;;;19.20;99.90;;;;;;5070746;28;20063;-52
2023/10/10 00:22:58;;;;;;;9.82;5.32;;;19.20;99.90;;;;;;5090898;28;20046;-53
2023/10/10 00:25:30;;;;;;;11.30;5.40;;;19.00;99.90;;;;;;5072425;28;20043;-54
2023/10/10 00:28:00;;;;;;;11.65;5.50;;;19.10;99.90;;;;;;5090948;28;20058;-54
2023/10/10 00:30:37;;;;;;;11.82;5.43;;;19.00;99.90;;;;;;5091136;28;20040;-54
2023/10/10 00:33:05;;;;;;;10.18;5.40;;;18.90;99.90;;;;;;5090598;28;20024;-53
2023/10/10 00:35:31;;;;;;;14.57;5.90;;;18.90;99.90;;;;;;5091112;28;20376;-54
2023/10/10 00:37:57;;;;;;;10.45;5.53;;;18.80;99.90;;;;;;5090971;28;20070;-52
2023/10/10 00:40:29;;;;;;;10.32;6.80;;;18.80;99.90;;;;;;5090850;28;20032;-52
2023/10/10 00:42:58;;;;;;;12.60;6.28;;;18.90;99.90;;;;;;5090820;28;20031;-53
2023/10/10 00:45:28;;;;;;;11.77;6.55;;;18.80;99.90;;;;;;5091162;28;20036;-52
2023/10/10 00:47:55;;;;;;;11.45;5.95;;;18.80;99.90;;;;;;5090678;28;20032;-53
2023/10/10 00:50:25;;;;;;;13.55;6.60;;;19.00;99.90;;;;;;5092771;28;20036;-54
2023/10/10 00:53:00;;;;;;;10.38;5.80;;;19.10;99.90;;;;;;5095164;28;20028;-52
2023/10/10 00:55:33;;;;;;;10.02;6.00;;;19.00;99.90;;;;;;5094593;28;20058;-52
2023/10/10 00:58:00;;;;;;;13.38;6.63;;;18.90;99.90;;;;;;5094613;28;20573;-55
2023/10/10 01:00:29;;;;;;;9.02;5.43;;;19.00;99.90;;;;;;5094465;28;20073;-53
2023/10/10 01:03:20;;;;;;;10.77;6.28;;;19.00;99.90;;;;;;5094757;28;20032;-54
2023/10/10 01:05:55;;;;;;;10.07;6.03;;;19.00;99.90;;;;;;5094437;28;20061;-53
2023/10/10 01:08:26;;;;;;;10.07;6.13;;;19.00;99.90;;;;;;5094220;28;20471;-53
2023/10/10 01:10:56;;;;;;;7.68;5.40;;;19.00;99.90;;;;;;5110043;28;20503;-53
2023/10/10 01:13:22;;;;;;;9.45;5.72;;;19.00;99.90;;;;;;5094107;28;20052;-54
2023/10/10 01:15:48;;;;;;;11.50;5.97;;;19.00;99.90;;;;;;5094280;28;20055;-54
2023/10/10 01:18:15;;;;;;;12.18;6.28;;;19.00;99.90;;;;;;5094138;28;20364;-54
2023/10/10 01:20:49;;;;;;;9.43;5.57;;;18.90;99.90;;;;;;5094452;28;20057;-53
2023/10/10 01:23:17;;;;;;;11.32;5.18;;;18.60;99.90;;;;;;5094265;28;20365;-53
2023/10/10 01:25:47;;;;;;;11.10;5.95;;;18.60;99.90;;;;;;5093902;28;20038;-53
2023/10/10 01:30:57;;;;;;;9.68;6.22;;;18.70;99.90;;;;;;5094259;28;20035;-55
2023/10/10 01:33:36;;;;;;;9.48;6.13;;;18.70;99.90;;;;;;5093725;28;20039;-54
2023/10/10 01:36:11;;;;;;;9.73;6.10;;;18.70;99.90;;;;;;5093758;28;20494;-54
2023/10/10 01:38:55;;;;;;;9.20;6.45;;;18.80;99.90;;;;;;5093990;28;20028;-54
2023/10/10 01:41:23;;;;;;;12.63;8.27;;;18.80;99.90;;;;;;5094071;28;20028;-53
2023/10/10 01:44:08;;;;;;;13.18;7.60;;;;;;;;;;5093678;28;20036;-54
2023/10/10 01:46:37;;;;;;;14.32;8.82;;;18.00;99.90;;;;;;5093712;28;20032;-53
2023/10/10 01:49:05;;;;;;;12.57;8.05;;;;;;;;;;5093556;28;20035;-53
2023/10/10 01:51:34;;;;;;;13.77;9.32;;;17.50;99.90;;;;;;5093550;28;20186;-54
2023/10/10 01:54:14;;;;;;;13.57;8.30;;;17.40;99.90;;;;;;5093338;28;20028;-53
2023/10/10 01:56:40;;;;;;;15.23;6.72;;;17.10;99.90;;;;;;5075994;28;20036;-54
2023/10/10 01:59:17;;;;;;;10.38;7.35;;;;;;;;;;5093562;28;20024;-53
2023/10/10 02:01:42;;;;;;;14.30;8.07;;;17.50;99.90;;;;;;5093082;28;20599;-53
2023/10/10 02:04:09;;;;;;;16.00;8.13;;;17.50;99.90;;;;;;5093150;28;20032;-54
2023/10/10 02:06:35;;;;;;;12.38;7.63;;;17.70;99.90;;;;;;5093306;28;20467;-53
2023/10/10 02:12:04;;;;;;;12.20;7.47;;;18.00;99.90;;;;;;5070195;28;20186;-55
2023/10/10 02:14:30;;;;;;;16.35;7.32;;;18.20;99.90;;;;;;5070213;28;20555;-53
2023/10/10 02:16:59;;;;;;;17.48;6.72;;;18.20;99.90;;;;;;5070121;28;20032;-53
2023/10/10 02:19:39;;;;;;;10.68;6.65;;;17.80;99.90;;;;;;5070181;28;20032;-53
2023/10/10 02:25:37;;;;;;;12.13;7.07;;;17.90;99.90;;;;;;5050067;28;20041;-54
2023/10/10 02:27:56;;;;;;;13.98;6.25;;;17.90;99.90;;;;;;5050060;28;20175;-54
2023/10/10 02:30:35;;;;;;;8.57;6.13;;;17.70;99.90;;;;;;5050370;28;20558;-54
2023/10/10 02:33:29;;;;;;;11.50;6.60;;;17.70;99.90;;;;;;5033139;28;20041;-54
2023/10/10 02:35:58;;;;;;;14.38;6.88;;;17.90;99.90;;;;;;5049767;28;20044;-54
2023/10/10 02:38:39;;;;;;;13.95;6.65;;;17.90;99.90;;;;;;5049831;28;20036;-53
2023/10/10 02:41:27;;;;;;;11.82;6.00;;;18.10;99.90;;;;;;5049809;28;20048;-53
2023/10/10 02:46:37;;;;;;;12.43;6.05;;;17.50;99.90;;;;;;5049677;28;20528;-52
2023/10/10 02:49:18;;;;;;;14.75;6.63;;;17.50;99.90;;;;;;5049542;28;20120;-54
2023/10/10 02:51:48;;;;;;;14.25;5.97;;;17.60;99.90;;;;;;5049598;28;20028;-54
2023/10/10 02:57:26;;;;;;;11.80;6.72;;;17.70;99.90;;;;;;5049491;28;20165;-53
2023/10/10 02:59:50;;;;;;;8.45;5.40;;;17.60;99.90;;;;;;5049534;28;20436;-53
2023/10/10 03:02:22;;;;;;;13.23;6.10;;;17.50;99.90;;;;;;5075843;28;20063;-53
2023/10/10 03:05:05;;;;;;;11.48;5.50;;;17.20;99.90;;;;;;5091944;28;20036;-53
2023/10/10 03:07:32;;;;;;;10.38;5.68;;;17.10;99.90;;;;;;5092060;28;20704;-53
2023/10/10 03:12:31;;;;;;;11.40;5.88;;;17.00;99.90;;;;;;5091580;28;20027;-53
2023/10/10 03:18:04;;;;;;;8.93;5.22;;;17.20;99.90;;;;;;5092070;28;20058;-53
2023/10/10 03:23:23;;;;;;;10.55;5.95;;;17.40;99.90;;;;;;5068692;28;20047;-54
2023/10/10 03:25:54;;;;;;;9.70;5.13;;;17.50;99.90;;;;;;5068983;28;20033;-55
2023/10/10 03:28:29;;;;;;;12.98;5.70;;;17.30;99.90;;;;;;5069049;28;20029;-52
2023/10/10 03:31:08;;;;;;;9.38;5.78;;;17.30;99.90;;;;;;5068755;28;20040;-54
2023/10/10 03:33:37;;;;;;;7.82;5.28;;;17.40;99.90;;;;;;5069044;28;20553;-52
2023/10/10 05:25:24;;;;;;;20.88;9.73;;;17.70;99.90;;;;;;5097672;27;20092;-52
2023/10/10 05:27:58;;;;;;;16.80;10.05;;;17.70;99.90;;;;;;5117112;27;20443;-52
2023/10/10 05:30:25;;;;;;;16.42;9.70;;;17.70;99.90;;;;;;5114323;28;20489;-51
2023/10/10 05:33:04;;;;;;;20.40;8.98;;;17.70;99.90;;;;;;5116277;27;20413;-51
2023/10/10 05:35:48;;;;;;;14.27;8.15;;;17.70;99.90;;;;;;5134261;27;20027;-53
2023/10/10 05:38:16;;;;;;;21.02;10.07;;;17.80;99.90;;;;;;5134973;27;20030;-54
2023/10/10 05:40:43;;;;;;;20.90;9.45;;;17.80;99.90;;;;;;5134835;27;20062;-52
2023/10/10 05:43:14;;;;;;;17.52;8.20;;;17.80;99.90;;;;;;5126342;27;20020;-52
2023/10/10 05:45:41;;;;;;;17.20;8.40;;;17.70;99.90;;;;;;5131689;27;20063;-53
2023/10/10 05:48:07;;;;;;;13.93;7.50;;;17.70;99.90;;;;;;5134349;27;20092;-53
2023/10/10 05:50:33;;;;;;;12.13;7.70;;;17.60;99.90;;;;;;5114148;27;20031;-52
2023/10/10 05:53:05;;;;;;;23.75;8.73;;;17.50;99.90;;;;;;5134295;27;20453;-51
2023/10/10 05:55:33;;;;;;;20.52;8.57;;;17.50;99.90;;;;;;5134069;27;20106;-51
2023/10/10 05:58:04;;;;;;;14.02;8.00;;;17.50;99.90;;;;;;5134093;27;20449;-52
2023/10/10 06:00:37;;;;;;;11.37;7.30;;;17.60;99.90;;;;;;5132984;27;20470;-53
2023/10/10 06:03:07;;;;;;;13.27;7.93;;;17.60;99.90;;;;;;5113198;28;20023;-51
2023/10/10 06:05:40;;;;;;;19.52;8.13;;;17.70;99.90;;;;;;5112278;28;20023;-54
2023/10/10 06:21:02;;;;;;;16.05;8.25;;;18.40;99.90;;;;;;5109710;27;20397;-54
2023/10/10 06:23:32;;;;;;;14.00;7.82;;;;;;;;;;5110187;28;20024;-53
2023/10/10 06:25:58;;;;;;;26.15;11.80;;;;;;;;;;5110118;28;20043;-52
2023/10/10 06:28:25;;;;;;;14.80;11.07;;;24.40;99.90;;;;;;5109774;28;20055;-54
2023/10/10 06:30:52;;;;;;;12.45;7.50;;;25.00;99.90;;;;;;5109367;28;20039;-52
2023/10/10 06:33:28;;;;;;;11.63;6.47;;;24.70;99.90;;;;;;5109426;28;20032;-51
2023/10/10 06:36:32;;;;;;;12.25;6.40;;;;;;;;;;5109606;28;20024;-52
2023/10/10 06:39:18;;;;;;;14.05;8.35;;;25.00;99.90;;;;;;5109352;28;20032;-53
2023/10/10 06:41:39;;;;;;;14.93;7.38;;;23.80;99.90;;;;;;5109141;28;20032;-54
2023/10/10 06:44:05;;;;;;;14.88;7.80;;;23.80;99.90;;;;;;5109386;28;20028;-51
2023/10/10 06:46:37;;;;;;;9.75;7.03;;;23.60;99.90;;;;;;5109448;28;20436;-53
2023/10/10 06:49:06;;;;;;;11.55;6.43;;;23.50;99.90;;;;;;5109130;28;20474;-53
2023/10/10 06:51:41;;;;;;;10.82;5.05;;;24.20;99.90;;;;;;5109409;28;20027;-52
2023/10/10 06:54:08;;;;;;;28.25;6.72;;;23.40;99.90;;;;;;5089605;28;20071;-52
2023/10/10 06:56:45;;;;;;;9.93;5.90;;;;;;;;;;5109075;28;20039;-54
2023/10/10 06:59:20;;;;;;;8.90;5.35;;;23.50;99.90;;;;;;5098872;28;20055;-53
2023/10/10 07:01:46;;;;;;;11.05;6.30;;;;;;;;;;5107914;28;20129;-54
2023/10/10 07:04:13;;;;;;;9.65;5.50;;;;;;;;;;5107694;28;20111;-53
2023/10/10 07:06:47;;;;;;;10.77;5.53;;;;;;;;;;5108297;28;20059;-53
2023/10/10 07:09:28;;;;;;;12.07;5.45;;;23.10;99.90;;;;;;5107927;28;20070;-49
2023/10/10 07:12:09;;;;;;;8.50;5.55;;;;;;;;;;5106888;28;20595;-54
2023/10/10 07:14:40;;;;;;;8.88;5.05;;;24.30;99.90;;;;;;5107450;28;20089;-54
2023/10/10 07:17:11;;;;;;;9.32;4.97;;;24.20;99.90;;;;;;5105555;28;20420;-55
2023/10/10 07:22:35;;;;;;;10.48;4.80;;;24.30;99.60;;;;;;5094519;28;20082;-52
2023/10/10 07:25:07;;;;;;;10.05;4.35;;;24.40;99.50;;;;;;5094256;28;20032;-54
2023/10/10 07:27:39;;;;;;;9.07;4.15;;;23.90;99.90;;;;;;5093214;28;20038;-54
2023/10/10 07:30:34;;;;;;;11.07;4.85;;;24.00;99.90;;;;;;5093506;28;20614;-53
2023/10/10 07:32:55;;;;;;;13.82;5.03;;;24.30;99.90;;;;;;5092005;28;20046;-54
2023/10/10 07:35:28;;;;;;;10.07;4.78;;;24.20;99.90;;;;;;5056746;28;20535;-55
2023/10/10 07:37:58;;;;;;;9.50;4.93;;;24.30;99.10;;;;;;5074261;28;20368;-53
2023/10/10 07:40:31;;;;;;;10.00;4.88;;;24.20;99.10;;;;;;5074164;28;20028;-52
2023/10/10 07:42:59;;;;;;;10.10;4.25;;;24.00;99.00;;;;;;5074206;28;20076;-53
2023/10/10 07:45:43;;;;;;;11.10;4.95;;;24.00;98.90;;;;;;5074099;28;20030;-51
2023/10/10 07:50:46;;;;;;;23.38;7.60;;;;;;;;;;5074517;28;20028;-55
2023/10/10 07:53:12;;;;;;;22.35;6.72;;;23.50;99.90;;;;;;5074033;28;20118;-51
2023/10/10 07:58:27;;;;;;;13.25;7.55;;;;;;;;;;5073916;28;20035;-55
2023/10/10 08:00:54;;;;;;;17.45;8.45;;;;;;;;;;5073636;28;20033;-54
2023/10/10 08:03:20;;;;;;;15.82;7.65;;;;;;;;;;5073660;28;20032;-54
2023/10/10 08:05:52;;;;;;;12.50;5.95;;;26.30;98.80;;;;;;5073977;28;20063;-55
2023/10/10 08:08:18;;;;;;;9.35;5.43;;;26.30;97.00;;;;;;5073820;28;20039;-54
2023/10/10 08:10:49;;;;;;;12.05;4.72;;;;;;;;;;5054808;28;20052;-51
2023/10/10 08:13:15;;;;;;;9.18;5.00;;;27.40;99.90;;;;;;5073673;28;20033;-53
2023/10/10 08:21:10;;;;;;;12.55;6.50;;;27.90;94.80;;;;;;5073714;28;20683;-51
2023/10/10 08:23:42;;;;;;;9.50;4.95;;;27.60;94.80;;;;;;5073340;28;20071;-53
2023/10/10 08:26:17;;;;;;;12.98;6.45;;;27.90;95.30;;;;;;5073701;28;20029;-53
2023/10/10 08:28:47;;;;;;;10.82;5.45;;;27.50;94.50;;;;;;5073129;28;20387;-52
2023/10/10 08:31:13;;;;;;;10.82;5.97;;;26.40;94.60;;;;;;5073295;28;20466;-52
2023/10/10 08:33:44;;;;;;;13.07;5.72;;;26.00;95.20;;;;;;5072293;28;20031;-55
2023/10/10 08:36:12;;;;;;;14.88;6.97;;;25.80;95.30;;;;;;5073225;28;20028;-53
2023/10/10 08:38:42;;;;;;;26.05;11.38;;;26.60;96.40;;;;;;5073094;28;20024;-53
2023/10/10 08:41:09;;;;;;;8.98;5.15;;;;;;;;;;5073158;28;20032;-52
2023/10/10 08:43:45;;;;;;;14.23;5.72;;;27.60;99.90;;;;;;5073288;28;20159;-52
2023/10/10 08:46:12;;;;;;;19.20;9.45;;;;;;;;;;5072896;28;20037;-52
2023/10/10 08:48:39;;;;;;;25.58;8.20;;;;;;;;;;5054069;28;20094;-52
2023/10/10 08:51:05;;;;;;;20.05;6.85;;;28.20;94.80;;;;;;5072814;28;20029;-53
2023/10/10 08:53:38;;;;;;;23.00;11.35;;;27.60;94.80;;;;;;5072726;28;20467;-55
2023/10/10 08:56:04;;;;;;;21.52;8.77;;;27.50;95.00;;;;;;5072810;28;20487;-55
2023/10/10 08:58:35;;;;;;;15.30;6.88;;;27.10;95.10;;;;;;5070647;28;20070;-52
2023/10/10 09:01:02;;;;;;;18.13;6.13;;;27.40;95.30;;;;;;5072867;28;20060;-52
2023/10/10 09:03:28;;;;;;;17.38;6.53;;;27.00;95.10;;;;;;5071541;28;20098;-52
2023/10/10 09:05:55;;;;;;;16.23;7.93;;;;;;;;;;5072678;28;20063;-53
2023/10/10 09:08:26;;;;;;;9.90;5.65;;;26.80;94.90;;;;;;5076753;28;20028;-52
2023/10/10 09:10:57;;;;;;;13.48;5.03;;;26.80;95.80;;;;;;5078647;28;20040;-53
2023/10/10 09:13:25;;;;;;;13.75;6.35;;;27.10;95.30;;;;;;5079463;28;20495;-54
2023/10/10 09:15:55;;;;;;;19.08;7.40;;;26.50;95.50;;;;;;5090832;28;20031;-53
2023/10/10 09:18:22;;;;;;;11.48;5.90;;;26.30;95.50;;;;;;5092316;28;20494;-53
2023/10/10 09:20:49;;;;;;;19.92;6.85;;;26.00;95.80;;;;;;5106971;28;20072;-51
2023/10/10 09:23:26;;;;;;;12.63;5.35;;;26.00;95.50;;;;;;5092510;28;20024;-51
2023/10/10 09:26:30;;;;;;;14.23;7.25;;;26.40;95.60;;;;;;5092108;28;20112;-51
2023/10/10 09:29:00;;;;;;;23.27;7.82;;;26.20;95.70;;;;;;5092264;28;20039;-56
2023/10/10 09:31:31;;;;;;;17.42;7.25;;;26.10;95.50;;;;;;5092379;28;20032;-51
2023/10/10 09:34:03;;;;;;;12.95;6.10;;;26.10;97.00;;;;;;5091978;28;20027;-51
2023/10/10 09:36:37;;;;;;;11.63;6.05;;;26.90;99.90;;;;;;5092596;28;20044;-53
2023/10/10 09:39:25;;;;;;;19.35;8.85;;;;;;;;;;5092088;28;20032;-52
2023/10/10 09:42:06;;;;;;;12.25;5.85;;;29.20;94.70;;;;;;5048432;28;20483;-52
2023/10/10 09:45:18;;;;;;;10.77;4.80;;;28.70;93.60;;;;;;5089147;28;20085;-52
2023/10/10 09:50:37;;;;;;;22.20;6.65;;;28.30;94.00;;;;;;4998663;28;20082;-52
2023/10/10 09:53:19;;;;;;;14.13;6.28;;;28.40;94.40;;;;;;4998080;28;20092;-53
2023/10/10 09:55:45;;;;;;;14.80;5.68;;;28.50;93.80;;;;;;4957026;28;20042;-53
2023/10/10 10:05:58;;;;;;;17.55;6.70;;;;;;;;;;4970922;28;20529;-52
2023/10/10 10:08:37;;;;;;;12.20;5.88;;;;;;;;;;4970610;28;20039;-52
2023/10/10 10:11:26;;;;;;;15.70;8.20;;;;;;;;;;4971936;28;20041;-53
2023/10/10 10:13:52;;;;;;;13.20;6.10;;;;;;;;;;4970318;28;20043;-51
2023/10/10 10:16:20;;;;;;;10.55;5.10;;;;;;;;;;4970475;28;20038;-53
2023/10/10 10:18:52;;;;;;;16.40;5.60;;;;;;;;;;4990979;28;20485;-52
2023/10/10 10:21:20;;;;;;;8.98;4.78;;;;;;;;;;5009540;28;20042;-51
2023/10/10 10:23:56;;;;;;;9.82;4.95;;;;;;;;;;5009496;28;20108;-54
2023/10/10 10:26:32;;;;;;;14.00;5.93;;;;;;;;;;5010102;28;20049;-53
2023/10/10 10:29:00;;;;;;;13.70;5.35;;;;;;;;;;5071301;28;20067;-51
2023/10/10 10:31:35;;;;;;;12.82;5.95;;;;;;;;;;5071513;28;20052;-53
2023/10/10 10:34:24;;;;;;;13.95;5.88;;;;;;;;;;5071303;28;20072;-53
2023/10/10 10:37:07;;;;;;;12.98;5.40;;;;;;;;;;5071690;28;20118;-53
2023/10/10 10:39:37;;;;;;;12.40;5.00;;;;;;;;;;5071744;28;20126;-51
2023/10/10 10:42:15;;;;;;;11.20;5.55;;;;;;;;;;5071542;28;20159;-51
2023/10/10 10:44:55;;;;;;;10.88;5.10;;;;;;;;;;5035946;28;20037;-51
2023/10/10 10:47:35;;;;;;;11.48;6.00;;;31.60;99.90;;;;;;5071519;28;20383;-51
2023/10/10 10:50:05;;;;;;;11.43;5.18;;;;;;;;;;5071181;28;20039;-51
2023/10/10 10:53:06;;;;;;;11.05;5.18;;;;;;;;;;5071556;28;20028;-52
2023/10/10 10:55:39;;;;;;;17.42;5.00;;;;;;;;;;5032715;28;20041;-53
2023/10/10 10:58:06;;;;;;;10.05;5.55;;;;;;;;;;5052452;28;20029;-52
2023/10/10 11:00:56;;;;;;;13.52;4.88;;;;;;;;;;5052643;28;20108;-52
2023/10/10 11:03:38;;;;;;;13.05;5.35;;;30.90;98.40;;;;;;5052556;28;20076;-51
2023/10/10 11:06:14;;;;;;;14.25;5.78;;;30.90;91.20;;;;;;5035320;28;20116;-53
2023/10/10 11:17:03;;;;;;;9.43;4.80;;;30.20;91.30;;;;;;5072351;28;20074;-52
2023/10/10 11:22:02;;;;;;;19.02;6.13;;;30.30;91.40;;;;;;5072000;28;20020;-52
2023/10/10 11:24:31;;;;;;;10.57;4.35;;;;;;;;;;5072148;28;20066;-52
2023/10/10 11:29:41;;;;;;;9.88;4.38;;;;;;;;;;5072041;28;20047;-52
2023/10/10 11:32:08;;;;;;;11.27;3.72;;;;;;;;;;5073279;28;20045;-52
2023/10/10 11:34:46;;;;;;;9.63;3.65;;;;;;;;;;5074414;28;20585;-52
2023/10/10 11:37:23;;;;;;;10.85;4.38;;;;;;;;;;5074670;28;20063;-52
2023/10/10 11:43:03;;;;;;;12.20;5.57;;;26.90;91.70;;;;;;5011489;28;20041;-52
2023/10/10 11:45:30;;;;;;;17.15;4.90;;;26.90;92.00;;;;;;5021010;28;20067;-52
2023/10/10 11:48:00;;;;;;;9.10;4.20;;;26.90;92.20;;;;;;5015538;28;20041;-52
2023/10/10 11:50:43;;;;;;;13.18;4.35;;;26.80;92.30;;;;;;5011845;28;20064;-52
2023/10/10 11:53:13;;;;;;;14.45;4.88;;;26.50;92.10;;;;;;5011892;28;20034;-52
2023/10/10 11:55:41;;;;;;;15.13;5.30;;;26.60;92.80;;;;;;5011953;28;20052;-52
2023/10/10 11:58:16;;;;;;;16.73;4.35;;;26.50;92.50;;;;;;5011788;28;20042;-52
2023/10/10 12:00:43;;;;;;;9.38;4.32;;;26.40;92.30;;;;;;5011835;28;20077;-52
2023/10/10 12:03:13;;;;;;;11.48;4.68;;;26.50;92.90;;;;;;5011556;28;20477;-52
2023/10/10 12:05:51;;;;;;;9.60;4.65;;;26.60;92.90;;;;;;5011786;28;20029;-52
2023/10/10 12:08:24;;;;;;;10.35;4.95;;;26.50;92.60;;;;;;5011470;28;20030;-52
2023/10/10 12:11:02;;;;;;;12.95;4.45;;;26.70;92.70;;;;;;5011433;28;20157;-52
2023/10/10 12:16:07;;;;;;;12.55;4.22;;;26.60;93.30;;;;;;5011513;28;20080;-52
2023/10/10 12:18:34;;;;;;;14.05;4.63;;;26.10;93.00;;;;;;5011384;28;20026;-51
2023/10/10 12:21:03;;;;;;;12.75;4.70;;;26.10;96.00;;;;;;5065210;28;20093;-51
2023/10/10 12:23:31;;;;;;;14.25;4.25;;;26.30;93.70;;;;;;5073468;28;20441;-51
2023/10/10 12:26:03;;;;;;;10.65;4.78;;;26.40;93.10;;;;;;5073294;28;20028;-52
2023/10/10 12:28:29;;;;;;;9.80;4.03;;;26.40;93.50;;;;;;5073543;28;20037;-52
2023/10/10 12:31:00;;;;;;;21.80;5.32;;;26.50;92.80;;;;;;5079882;28;20024;-54
2023/10/10 12:33:27;;;;;;;;;;;26.70;93.20;;;;;;5065253;28;20493;-53
2023/10/10 12:35:53;;;;;;;10.02;4.50;;;26.50;92.70;;;;;;5092705;28;20440;-53
2023/10/10 12:38:21;;;;;;;9.85;4.30;;;26.40;93.10;;;;;;5092758;28;20016;-53
2023/10/10 12:40:52;;;;;;;11.80;4.30;;;26.10;93.00;;;;;;5066066;28;20068;-54
2023/10/10 12:43:18;;;;;;;13.70;4.78;;;26.10;93.00;;;;;;5082782;28;20036;-52
2023/10/10 12:45:47;;;;;;;11.13;5.40;;;;;;;;;;5093648;28;20024;-52
2023/10/10 12:48:14;;;;;;;14.95;6.13;;;;;;;;;;5074751;28;20067;-52
2023/10/10 12:50:44;;;;;;;14.35;5.80;;;;;;;;;;5093183;28;20040;-53
2023/10/10 12:53:15;;;;;;;11.95;4.80;;;;;;;;;;5093077;28;20107;-53
2023/10/10 12:55:52;;;;;;;11.73;4.10;;;25.30;93.30;;;;;;5093251;28;20478;-53
2023/10/10 12:58:23;;;;;;;8.70;4.60;;;25.40;94.00;;;;;;5093266;28;20421;-53
2023/10/10 13:00:57;;;;;;;10.98;4.90;;;25.90;94.00;;;;;;5073831;28;20090;-52
2023/10/10 13:03:32;;;;;;;13.85;5.45;;;;;;;;;;5092826;28;20142;-52
2023/10/10 13:06:00;;;;;;;12.70;5.53;;;;;;;;;;5092845;28;20024;-52
2023/10/10 13:08:39;;;;;;;11.32;4.60;;;26.70;99.90;;;;;;5093110;28;20024;-53
2023/10/10 13:11:20;;;;;;;12.32;5.03;;;26.70;97.70;;;;;;5092729;28;20364;-52
2023/10/10 13:13:56;;;;;;;12.88;4.72;;;26.60;97.00;;;;;;5093052;28;20089;-52
2023/10/10 13:16:24;;;;;;;10.75;4.60;;;25.90;94.70;;;;;;5092746;28;20039;-53
2023/10/10 13:18:51;;;;;;;12.13;5.05;;;25.60;93.50;;;;;;5091848;28;20075;-53
2023/10/10 13:21:20;;;;;;;11.02;4.57;;;25.40;93.50;;;;;;5092719;28;20382;-52
2023/10/10 13:23:51;;;;;;;16.80;5.20;;;25.20;94.00;;;;;;5092536;28;20493;-54
2023/10/10 13:26:20;;;;;;;10.47;4.80;;;25.30;94.10;;;;;;5092596;28;20016;-52
2023/10/10 13:28:46;;;;;;;19.95;5.60;;;25.40;94.00;;;;;;5092642;28;20089;-52
2023/10/10 13:31:16;;;;;;;9.32;5.40;;;25.40;94.30;;;;;;5073430;28;20040;-53
2023/10/10 13:33:43;;;;;;;13.27;5.43;;;25.40;94.20;;;;;;5092324;28;20031;-52
2023/10/10 13:36:14;;;;;;;13.30;4.28;;;;;;;;;;5092392;28;20081;-52
2023/10/10 13:38:50;;;;;;;11.10;4.32;;;;;;;;;;5092280;28;20425;-52
2023/10/10 13:41:28;;;;;;;13.05;4.93;;;25.30;94.10;;;;;;5092289;28;20085;-53
2023/10/10 13:43:59;;;;;;;11.20;5.07;;;25.30;94.30;;;;;;5092236;28;20046;-52
2023/10/10 13:46:27;;;;;;;9.50;5.20;;;24.90;94.30;;;;;;5092422;28;20047;-52
2023/10/10 13:48:53;;;;;;;16.20;5.10;;;;;;;;;;5092135;28;20036;-52
2023/10/10 13:51:19;;;;;;;12.02;5.63;;;;;;;;;;5092644;28;20471;-52
2023/10/10 13:53:46;;;;;;;15.07;5.20;;;;;;;;;;5091957;28;20056;-52
2023/10/10 13:56:16;;;;;;;11.30;5.20;;;24.30;99.90;;;;;;5092108;28;20106;-52
2023/10/10 13:58:47;;;;;;;14.88;5.88;;;24.00;94.90;;;;;;5092139;28;20051;-52
2023/10/10 14:03:57;;;;;;;10.27;5.00;;;24.00;95.20;;;;;;5090220;28;20425;-53
2023/10/10 14:06:26;;;;;;;;;;;24.00;94.90;;;;;;5072746;28;20068;-52
2023/10/10 14:08:57;;;;;;;14.20;5.78;;;24.20;95.00;;;;;;5091850;28;19966;-52
2023/10/10 14:11:23;;;;;;;13.85;5.70;;;24.30;94.90;;;;;;5073270;28;20036;-52
2023/10/10 14:13:54;;;;;;;15.95;6.15;;;24.20;94.80;;;;;;5091708;28;20032;-52
2023/10/10 14:16:21;;;;;;;12.13;5.57;;;24.00;95.00;;;;;;5091999;28;20047;-53
2023/10/10 14:18:51;;;;;;;11.65;5.32;;;;;;;;;;5091460;28;20051;-52
2023/10/10 14:21:25;;;;;;;18.05;6.20;;;;;;;;;;5091801;28;20043;-52
2023/10/10 14:24:13;;;;;;;18.08;6.10;;;23.80;95.30;;;;;;5091576;28;20028;-53
2023/10/10 14:26:48;;;;;;;12.98;5.72;;;23.70;95.50;;;;;;5091702;28;20036;-52
2023/10/10 14:29:14;;;;;;;12.18;6.22;;;23.70;95.70;;;;;;5091667;28;20047;-52
2023/10/10 14:31:44;;;;;;;15.30;6.55;;;23.80;95.70;;;;;;5094521;28;20027;-53
2023/10/10 14:34:20;;;;;;;19.38;8.05;;;23.80;95.70;;;;;;5095819;28;20039;-53
2023/10/10 14:36:48;;;;;;;16.83;7.05;;;23.90;95.80;;;;;;5095753;28;20071;-52
2023/10/10 14:39:28;;;;;;;18.65;6.47;;;23.80;95.90;;;;;;5095692;28;20059;-53
2023/10/10 14:42:00;;;;;;;14.95;6.97;;;23.70;95.90;;;;;;5078759;28;20056;-53
2023/10/10 14:44:27;;;;;;;16.38;7.05;;;23.70;96.00;;;;;;5094041;28;20364;-52
2023/10/10 14:46:57;;;;;;;12.80;5.68;;;23.60;96.10;;;;;;5076348;28;20039;-52
2023/10/10 14:49:30;;;;;;;17.83;5.95;;;23.40;96.30;;;;;;5095495;28;20039;-53
2023/10/10 14:52:03;;;;;;;12.88;6.00;;;23.40;96.50;;;;;;5095899;28;20052;-52
2023/10/10 14:54:29;;;;;;;15.73;7.97;;;23.20;96.60;;;;;;5095504;28;20032;-52
2023/10/10 14:56:54;;;;;;;15.07;7.18;;;23.10;96.80;;;;;;5095185;28;20074;-52
2023/10/10 14:59:25;;;;;;;14.18;7.40;;;23.10;97.20;;;;;;5095410;28;20493;-52
2023/10/10 15:01:52;;;;;;;26.25;8.13;;;22.80;97.30;;;;;;5095274;28;20059;-52
2023/10/10 15:04:20;;;;;;;16.70;7.53;;;22.90;97.50;;;;;;5095621;28;20020;-52
2023/10/10 15:06:48;;;;;;;16.23;6.38;;;22.80;97.80;;;;;;5095078;28;20375;-52
2023/10/10 15:09:15;;;;;;;12.60;7.05;;;22.80;97.90;;;;;;5095105;28;20061;-51
2023/10/10 15:11:42;;;;;;;15.52;8.20;;;22.70;98.10;;;;;;5094977;28;20043;-52
2023/10/10 15:14:12;;;;;;;15.02;7.53;;;22.70;98.10;;;;;;5095192;28;20032;-53
2023/10/10 15:16:39;;;;;;;18.58;6.47;;;;;;;;;;5094917;28;20072;-53
2023/10/10 15:19:08;;;;;;;18.35;7.85;;;22.70;99.90;;;;;;5094632;28;20480;-52
2023/10/10 15:21:35;;;;;;;12.30;7.13;;;22.50;98.70;;;;;;5075839;28;20028;-52
2023/10/10 15:24:12;;;;;;;19.40;8.32;;;22.40;99.00;;;;;;5094785;28;20028;-53
2023/10/10 15:26:40;;;;;;;19.27;6.22;;;22.40;99.40;;;;;;5061101;28;20043;-52
2023/10/10 15:29:10;;;;;;;17.20;7.38;;;22.40;99.60;;;;;;5093424;28;20044;-52
2023/10/10 15:31:36;;;;;;;14.13;6.55;;;;;;;;;;5094714;28;20028;-52
2023/10/10 15:34:03;;;;;;;15.55;6.00;;;22.20;99.80;;;;;;5094592;28;20048;-52
2023/10/10 15:36:31;;;;;;;11.27;4.93;;;22.10;99.90;;;;;;5075813;28;20044;-52
2023/10/10 15:39:05;;;;;;;13.13;5.57;;;22.10;99.90;;;;;;5094381;28;20024;-53
2023/10/10 15:41:32;;;;;;;18.60;8.00;;;22.10;99.90;;;;;;5094045;28;20024;-52
2023/10/10 15:44:04;;;;;;;14.68;6.30;;;22.10;99.90;;;;;;5094356;28;20051;-52
2023/10/10 15:46:31;;;;;;;14.60;6.00;;;21.90;99.90;;;;;;5094507;28;20024;-53
2023/10/10 15:48:59;;;;;;;16.60;5.75;;;21.80;99.90;;;;;;5094726;28;20039;-53
2023/10/10 15:51:25;;;;;;;17.50;6.57;;;21.70;99.90;;;;;;5094444;28;20024;-52
2023/10/10 15:53:54;;;;;;;15.15;6.65;;;21.70;99.90;;;;;;5094188;28;20390;-53
2023/10/10 15:56:27;;;;;;;17.52;6.75;;;21.60;99.90;;;;;;5094665;28;20107;-51
2023/10/10 15:58:54;;;;;;;21.08;6.88;;;21.50;99.90;;;;;;5094620;28;20085;-53
2023/10/10 16:01:27;;;;;;;17.63;8.82;;;21.40;99.90;;;;;;5094241;28;20035;-52
2023/10/10 16:04:05;;;;;;;19.15;7.47;;;21.40;99.90;;;;;;5093993;28;20545;-52
2023/10/10 16:06:36;;;;;;;17.27;7.07;;;21.30;99.90;;;;;;5094361;28;20497;-53
2023/10/10 16:09:29;;;;;;;17.93;8.23;;;21.30;99.90;;;;;;5093779;28;20085;-53
2023/10/10 16:11:55;;;;;;;21.25;8.32;;;21.20;99.90;;;;;;5093870;28;20277;-53
2023/10/10 16:14:22;;;;;;;16.42;8.07;;;21.30;99.90;;;;;;5093844;28;20035;-52
2023/10/10 16:16:48;;;;;;;17.48;7.72;;;21.20;99.90;;;;;;5093960;28;20114;-52
2023/10/10 16:19:24;;;;;;;15.82;8.07;;;21.20;99.90;;;;;;5092310;28;20055;-53
2023/10/10 16:21:55;;;;;;;19.85;7.97;;;21.20;99.90;;;;;;5056633;28;20048;-53
2023/10/10 16:24:24;;;;;;;18.58;7.65;;;21.30;99.90;;;;;;5038186;28;20097;-52
2023/10/10 16:26:58;;;;;;;23.42;8.77;;;21.30;99.90;;;;;;5091367;28;20032;-53
2023/10/10 16:29:24;;;;;;;23.63;8.82;;;21.40;99.90;;;;;;5092240;28;20670;-52
2023/10/10 16:31:49;;;;;;;14.45;8.50;;;21.40;99.90;;;;;;5092346;28;20039;-53